<?xml version='1.0' encoding='UTF-8'?>
<gpx version="1.1" creator="https://www.komoot.de" xmlns="http://www.topografix.com/GPX/1/1" xmlns:xsi="http://www.w3.org/2001/XMLSchema-instance" xsi:schemaLocation="http://www.topografix.com/GPX/1/1 http://www.topografix.com/GPX/1/1/gpx.xsd">
  <metadata>
    <name>Kemnath kurz</name>
    <author>
      <link href="https://www.komoot.de">
        <text>komoot</text>
        <type>text/html</type>
      </link>
    </author>
  </metadata>
  <trk>
    <name>Kemnath kurz</name>
    <trkseg>
      <trkpt lat="49.868203" lon="11.878740">
        <ele>463.905270</ele>
        <time>2022-10-20T06:26:54.446Z</time>
      </trkpt>
      <trkpt lat="49.868135" lon="11.878787">
        <ele>463.905270</ele>
        <time>2022-10-20T06:27:01.990Z</time>
      </trkpt>
      <trkpt lat="49.868061" lon="11.878838">
        <ele>463.905270</ele>
        <time>2022-10-20T06:27:10.112Z</time>
      </trkpt>
      <trkpt lat="49.867996" lon="11.878699">
        <ele>463.905270</ele>
        <time>2022-10-20T06:27:21.441Z</time>
      </trkpt>
      <trkpt lat="49.867931" lon="11.878275">
        <ele>463.905270</ele>
        <time>2022-10-20T06:27:49.834Z</time>
      </trkpt>
      <trkpt lat="49.867928" lon="11.878221">
        <ele>463.905270</ele>
        <time>2022-10-20T06:27:53.476Z</time>
      </trkpt>
      <trkpt lat="49.867891" lon="11.877391">
        <ele>464.168628</ele>
        <time>2022-10-20T06:28:48.558Z</time>
      </trkpt>
      <trkpt lat="49.867718" lon="11.877399">
        <ele>464.376870</ele>
        <time>2022-10-20T06:29:06.469Z</time>
      </trkpt>
      <trkpt lat="49.867719" lon="11.877638">
        <ele>464.562222</ele>
        <time>2022-10-20T06:29:22.514Z</time>
      </trkpt>
      <trkpt lat="49.867513" lon="11.877679">
        <ele>464.812108</ele>
        <time>2022-10-20T06:29:44.270Z</time>
      </trkpt>
      <trkpt lat="49.867218" lon="11.877737">
        <ele>465.169884</ele>
        <time>2022-10-20T06:30:15.446Z</time>
      </trkpt>
      <trkpt lat="49.866925" lon="11.877795">
        <ele>465.525274</ele>
        <time>2022-10-20T06:30:46.359Z</time>
      </trkpt>
      <trkpt lat="49.866728" lon="11.877749">
        <ele>465.764969</ele>
        <time>2022-10-20T06:31:07.507Z</time>
      </trkpt>
      <trkpt lat="49.866530" lon="11.876829">
        <ele>466.437024</ele>
        <time>2022-10-20T06:32:13.543Z</time>
      </trkpt>
      <trkpt lat="49.865947" lon="11.874014">
        <ele>467.404048</ele>
        <time>2022-10-20T06:35:30.394Z</time>
      </trkpt>
      <trkpt lat="49.865098" lon="11.871172">
        <ele>466.143902</ele>
        <time>2022-10-20T06:38:59.556Z</time>
      </trkpt>
      <trkpt lat="49.864967" lon="11.870671">
        <ele>466.122161</ele>
        <time>2022-10-20T06:39:34.982Z</time>
      </trkpt>
      <trkpt lat="49.864889" lon="11.870145">
        <ele>466.100456</ele>
        <time>2022-10-20T06:40:10.241Z</time>
      </trkpt>
      <trkpt lat="49.864853" lon="11.870161">
        <ele>466.098120</ele>
        <time>2022-10-20T06:40:14.116Z</time>
      </trkpt>
      <trkpt lat="49.864889" lon="11.870145">
        <ele>466.095783</ele>
        <time>2022-10-20T06:40:18.079Z</time>
      </trkpt>
      <trkpt lat="49.865613" lon="11.869722">
        <ele>468.162359</ele>
        <time>2022-10-20T06:41:42.317Z</time>
      </trkpt>
      <trkpt lat="49.866898" lon="11.868987">
        <ele>474.558339</ele>
        <time>2022-10-20T06:44:26.349Z</time>
      </trkpt>
      <trkpt lat="49.867948" lon="11.868365">
        <ele>479.105035</ele>
        <time>2022-10-20T06:46:39.130Z</time>
      </trkpt>
      <trkpt lat="49.867928" lon="11.868281">
        <ele>479.338525</ele>
        <time>2022-10-20T06:46:45.623Z</time>
      </trkpt>
      <trkpt lat="49.867850" lon="11.867947">
        <ele>480.264806</ele>
        <time>2022-10-20T06:47:10.987Z</time>
      </trkpt>
      <trkpt lat="49.867796" lon="11.866509">
        <ele>482.169220</ele>
        <time>2022-10-20T06:48:48.218Z</time>
      </trkpt>
      <trkpt lat="49.867756" lon="11.866305">
        <ele>482.268752</ele>
        <time>2022-10-20T06:49:02.161Z</time>
      </trkpt>
      <trkpt lat="49.867586" lon="11.865953">
        <ele>482.474066</ele>
        <time>2022-10-20T06:49:30.772Z</time>
      </trkpt>
      <trkpt lat="49.867213" lon="11.865678">
        <ele>482.773140</ele>
        <time>2022-10-20T06:50:12.161Z</time>
      </trkpt>
      <trkpt lat="49.867260" lon="11.865621">
        <ele>482.816342</ele>
        <time>2022-10-20T06:50:18.163Z</time>
      </trkpt>
      <trkpt lat="49.868228" lon="11.864777">
        <ele>484.597700</ele>
        <time>2022-10-20T06:52:12.022Z</time>
      </trkpt>
      <trkpt lat="49.868722" lon="11.864322">
        <ele>485.749735</ele>
        <time>2022-10-20T06:53:14.567Z</time>
      </trkpt>
      <trkpt lat="49.869207" lon="11.863670">
        <ele>487.359143</ele>
        <time>2022-10-20T06:54:26.821Z</time>
      </trkpt>
      <trkpt lat="49.870525" lon="11.861288">
        <ele>493.632259</ele>
        <time>2022-10-20T06:58:17.587Z</time>
      </trkpt>
      <trkpt lat="49.870717" lon="11.861077">
        <ele>493.710299</ele>
        <time>2022-10-20T06:58:42.282Z</time>
      </trkpt>
      <trkpt lat="49.870893" lon="11.860976">
        <ele>493.772541</ele>
        <time>2022-10-20T06:59:01.563Z</time>
      </trkpt>
      <trkpt lat="49.871441" lon="11.860632">
        <ele>493.968617</ele>
        <time>2022-10-20T07:00:01.917Z</time>
      </trkpt>
      <trkpt lat="49.872791" lon="11.860154">
        <ele>493.237852</ele>
        <time>2022-10-20T07:02:27.950Z</time>
      </trkpt>
      <trkpt lat="49.873101" lon="11.859471">
        <ele>492.779085</ele>
        <time>2022-10-20T07:03:22.342Z</time>
      </trkpt>
      <trkpt lat="49.873149" lon="11.859365">
        <ele>492.707940</ele>
        <time>2022-10-20T07:03:30.803Z</time>
      </trkpt>
      <trkpt lat="49.873293" lon="11.860760">
        <ele>495.941527</ele>
        <time>2022-10-20T07:05:13.347Z</time>
      </trkpt>
      <trkpt lat="49.873360" lon="11.861976">
        <ele>499.538546</ele>
        <time>2022-10-20T07:06:48.920Z</time>
      </trkpt>
      <trkpt lat="49.873231" lon="11.864440">
        <ele>505.921276</ele>
        <time>2022-10-20T07:09:56.995Z</time>
      </trkpt>
      <trkpt lat="49.873146" lon="11.864902">
        <ele>507.125447</ele>
        <time>2022-10-20T07:10:30.160Z</time>
      </trkpt>
      <trkpt lat="49.872757" lon="11.867278">
        <ele>506.408475</ele>
        <time>2022-10-20T07:13:09.761Z</time>
      </trkpt>
      <trkpt lat="49.872849" lon="11.867629">
        <ele>506.170765</ele>
        <time>2022-10-20T07:13:35.803Z</time>
      </trkpt>
      <trkpt lat="49.872700" lon="11.867627">
        <ele>506.006159</ele>
        <time>2022-10-20T07:13:51.738Z</time>
      </trkpt>
      <trkpt lat="49.872719" lon="11.868141">
        <ele>504.537252</ele>
        <time>2022-10-20T07:14:27.410Z</time>
      </trkpt>
      <trkpt lat="49.873520" lon="11.874312">
        <ele>485.566189</ele>
        <time>2022-10-20T07:21:53.507Z</time>
      </trkpt>
      <trkpt lat="49.873520" lon="11.874646">
        <ele>484.561059</ele>
        <time>2022-10-20T07:22:17.511Z</time>
      </trkpt>
      <trkpt lat="49.872671" lon="11.876308">
        <ele>478.476471</ele>
        <time>2022-10-20T07:24:45.933Z</time>
      </trkpt>
      <trkpt lat="49.872633" lon="11.876299">
        <ele>478.316682</ele>
        <time>2022-10-20T07:24:50.573Z</time>
      </trkpt>
      <trkpt lat="49.870979" lon="11.875920">
        <ele>471.780790</ele>
        <time>2022-10-20T07:27:51.532Z</time>
      </trkpt>
      <trkpt lat="49.870423" lon="11.875694">
        <ele>469.875044</ele>
        <time>2022-10-20T07:28:52.836Z</time>
      </trkpt>
      <trkpt lat="49.870364" lon="11.875689">
        <ele>469.679126</ele>
        <time>2022-10-20T07:28:59.048Z</time>
      </trkpt>
      <trkpt lat="49.870423" lon="11.875694">
        <ele>469.483207</ele>
        <time>2022-10-20T07:29:05.410Z</time>
      </trkpt>
      <trkpt lat="49.870398" lon="11.875962">
        <ele>468.904515</ele>
        <time>2022-10-20T07:29:24.135Z</time>
      </trkpt>
      <trkpt lat="49.870386" lon="11.876262">
        <ele>468.262171</ele>
        <time>2022-10-20T07:29:44.825Z</time>
      </trkpt>
      <trkpt lat="49.870302" lon="11.876676">
        <ele>467.368740</ele>
        <time>2022-10-20T07:30:14.766Z</time>
      </trkpt>
      <trkpt lat="49.869664" lon="11.878808">
        <ele>463.839391</ele>
        <time>2022-10-20T07:32:53.514Z</time>
      </trkpt>
      <trkpt lat="49.869647" lon="11.879096">
        <ele>463.405154</ele>
        <time>2022-10-20T07:33:12.807Z</time>
      </trkpt>
      <trkpt lat="49.869696" lon="11.879513">
        <ele>462.992016</ele>
        <time>2022-10-20T07:33:41.265Z</time>
      </trkpt>
      <trkpt lat="49.869653" lon="11.879748">
        <ele>462.792202</ele>
        <time>2022-10-20T07:33:57.650Z</time>
      </trkpt>
      <trkpt lat="49.869529" lon="11.880005">
        <ele>462.529614</ele>
        <time>2022-10-20T07:34:19.148Z</time>
      </trkpt>
      <trkpt lat="49.869248" lon="11.880290">
        <ele>462.103573</ele>
        <time>2022-10-20T07:34:53.741Z</time>
      </trkpt>
      <trkpt lat="49.868965" lon="11.881260">
        <ele>461.232656</ele>
        <time>2022-10-20T07:36:03.616Z</time>
      </trkpt>
      <trkpt lat="49.868749" lon="11.881848">
        <ele>461.019685</ele>
        <time>2022-10-20T07:36:47.959Z</time>
      </trkpt>
      <trkpt lat="49.868715" lon="11.881769">
        <ele>461.030926</ele>
        <time>2022-10-20T07:36:54.115Z</time>
      </trkpt>
      <trkpt lat="49.868749" lon="11.881848">
        <ele>461.042167</ele>
        <time>2022-10-20T07:37:00.365Z</time>
      </trkpt>
      <trkpt lat="49.868726" lon="11.881595">
        <ele>461.072402</ele>
        <time>2022-10-20T07:37:16.911Z</time>
      </trkpt>
      <trkpt lat="49.868510" lon="11.881049">
        <ele>461.148211</ele>
        <time>2022-10-20T07:37:58.295Z</time>
      </trkpt>
      <trkpt lat="49.868377" lon="11.880627">
        <ele>461.203798</ele>
        <time>2022-10-20T07:38:29.138Z</time>
      </trkpt>
      <trkpt lat="49.868218" lon="11.880133">
        <ele>461.269139</ele>
        <time>2022-10-20T07:39:05.762Z</time>
      </trkpt>
      <trkpt lat="49.868189" lon="11.879750">
        <ele>461.306855</ele>
        <time>2022-10-20T07:39:31.446Z</time>
      </trkpt>
      <trkpt lat="49.868190" lon="11.879441">
        <ele>461.306855</ele>
        <time>2022-10-20T07:39:52.280Z</time>
      </trkpt>
      <trkpt lat="49.868167" lon="11.879354">
        <ele>461.306855</ele>
        <time>2022-10-20T07:39:58.571Z</time>
      </trkpt>
      <trkpt lat="49.868083" lon="11.879323">
        <ele>461.306855</ele>
        <time>2022-10-20T07:40:07.437Z</time>
      </trkpt>
      <trkpt lat="49.868059" lon="11.879208">
        <ele>461.306855</ele>
        <time>2022-10-20T07:40:15.634Z</time>
      </trkpt>
      <trkpt lat="49.868118" lon="11.879173">
        <ele>461.306855</ele>
        <time>2022-10-20T07:40:22.186Z</time>
      </trkpt>
      <trkpt lat="49.868130" lon="11.878983">
        <ele>461.306855</ele>
        <time>2022-10-20T07:40:34.952Z</time>
      </trkpt>
      <trkpt lat="49.868061" lon="11.878838">
        <ele>461.306855</ele>
        <time>2022-10-20T07:40:46.950Z</time>
      </trkpt>
      <trkpt lat="49.868135" lon="11.878787">
        <ele>461.306855</ele>
        <time>2022-10-20T07:40:55.323Z</time>
      </trkpt>
      <trkpt lat="49.868203" lon="11.878740">
        <ele>461.306855</ele>
        <time>2022-10-20T07:41:03.063Z</time>
      </trkpt>
      <trkpt lat="49.868235" lon="11.878719">
        <ele>461.306855</ele>
        <time>2022-10-20T07:41:06.627Z</time>
      </trkpt>
    </trkseg>
  </trk>
</gpx>